createdAt,value
2023-03-02T00:01:37.715Z,67.22
2023-03-02T00:04:07.868Z,67.23
2023-03-02T00:06:37.470Z,67.14
2023-03-02T00:09:06.336Z,66.94
2023-03-02T00:11:38.630Z,66.97
2023-03-02T00:14:06.695Z,66.97
2023-03-02T00:16:34.944Z,67.21
2023-03-02T00:19:03.085Z,67.26
2023-03-02T00:21:31.715Z,67.06
2023-03-02T00:23:59.500Z,66.94
2023-03-02T00:26:27.571Z,66.95
2023-03-02T00:28:56.838Z,67.15
2023-03-02T00:31:24.708Z,67.34
2023-03-02T00:33:54.266Z,67.25
2023-03-02T00:36:23.965Z,66.88
2023-03-02T00:38:53.188Z,67.35
2023-03-02T00:41:22.457Z,67.22
2023-03-02T00:43:51.199Z,67.08
2023-03-02T00:46:23.189Z,67.20
2023-03-02T00:48:52.154Z,66.96
2023-03-02T00:51:20.148Z,67.18
2023-03-02T00:53:48.113Z,67.04
2023-03-02T00:56:16.012Z,67.48
2023-03-02T00:58:48.829Z,66.99
2023-03-02T01:01:18.575Z,66.80
2023-03-02T01:03:51.271Z,66.83
2023-03-02T01:06:21.693Z,67.14
2023-03-02T01:08:49.697Z,66.83
2023-03-02T01:11:19.188Z,66.90
2023-03-02T01:13:47.958Z,67.04
2023-03-02T01:16:16.000Z,67.60
2023-03-02T01:18:43.979Z,67.17
2023-03-02T01:21:15.558Z,67.18
2023-03-02T01:23:43.709Z,67.24
2023-03-02T01:26:11.820Z,67.58
2023-03-02T01:28:39.695Z,67.42
2023-03-02T01:31:07.609Z,66.97
2023-03-02T01:33:35.402Z,67.20
2023-03-02T01:36:03.476Z,67.49
2023-03-02T01:38:32.692Z,67.41
2023-03-02T01:41:00.853Z,67.53
2023-03-02T01:43:29.437Z,67.72
2023-03-02T01:46:00.497Z,67.75
2023-03-02T01:48:46.434Z,67.29
2023-03-02T01:51:20.520Z,67.39
2023-03-02T01:53:54.679Z,67.48
2023-03-02T01:56:30.629Z,67.44
2023-03-02T01:59:02.399Z,67.58
2023-03-02T02:01:33.294Z,67.49
2023-03-02T02:04:01.720Z,67.44
2023-03-02T02:06:33.859Z,67.44
2023-03-02T02:09:05.209Z,67.21
2023-03-02T02:11:33.246Z,67.46
2023-03-02T02:14:03.132Z,67.62
2023-03-02T02:16:35.324Z,67.47
2023-03-02T02:19:04.038Z,67.27
2023-03-02T02:21:31.909Z,67.65
2023-03-02T02:24:10.417Z,67.49
2023-03-02T02:26:42.734Z,67.55
2023-03-02T02:29:15.255Z,67.71
2023-03-02T02:31:48.500Z,67.70
2023-03-02T02:34:22.529Z,67.73
2023-03-02T02:36:56.911Z,67.50
2023-03-02T02:39:29.549Z,67.64
2023-03-02T04:08:21.630Z,68.34
2023-03-02T04:10:50.150Z,67.93
2023-03-02T04:13:18.375Z,68.37
2023-03-02T04:15:47.179Z,68.16
2023-03-02T04:18:15.584Z,68.39
2023-03-02T04:20:44.912Z,67.99
2023-03-02T04:23:13.800Z,68.45
2023-03-02T04:25:41.698Z,68.50
2023-03-02T04:28:17.600Z,68.46
2023-03-02T04:30:46.824Z,68.15
2023-03-02T04:33:14.964Z,68.19
2023-03-02T04:35:44.244Z,68.06
2023-03-02T04:38:12.348Z,68.22
2023-03-02T04:40:40.315Z,68.22
2023-03-02T04:43:08.304Z,68.32
2023-03-02T04:45:36.319Z,68.26
2023-03-02T04:48:05.113Z,68.54
2023-03-02T04:50:33.049Z,68.32
2023-03-02T04:53:02.180Z,68.17
2023-03-02T04:55:30.080Z,68.45
2023-03-02T04:57:57.823Z,68.31
2023-03-02T05:00:25.942Z,68.23
2023-03-02T05:02:53.726Z,68.56
2023-03-02T05:05:23.891Z,68.57
2023-03-02T05:07:52.322Z,68.70
2023-03-02T05:10:25.133Z,68.40
2023-03-02T05:12:58.179Z,68.73
2023-03-02T05:15:29.507Z,68.25
2023-03-02T05:17:57.992Z,68.48
2023-03-02T05:20:30.048Z,68.66
2023-03-02T05:23:00.544Z,68.61
2023-03-02T05:25:31.413Z,68.60
2023-03-02T05:27:59.836Z,68.34
2023-03-02T05:30:27.731Z,68.99
2023-03-02T05:32:55.848Z,68.79
2023-03-02T05:35:23.987Z,68.65
2023-03-02T05:37:52.352Z,68.47
2023-03-02T05:40:21.696Z,68.55
2023-03-02T05:42:50.762Z,68.66
2023-03-02T05:45:21.958Z,68.76
2023-03-02T05:47:49.887Z,68.70
2023-03-02T05:50:17.866Z,68.74
2023-03-02T05:52:46.340Z,68.79
2023-03-02T05:55:15.608Z,68.96
2023-03-02T05:57:43.784Z,68.72
2023-03-02T06:00:15.293Z,68.48
2023-03-02T06:02:43.720Z,68.80
2023-03-02T06:05:14.843Z,68.78
2023-03-02T06:07:42.720Z,68.70
2023-03-02T06:10:13.095Z,68.63
2023-03-02T06:12:41.402Z,68.75
2023-03-02T06:15:10.616Z,68.81
2023-03-02T06:17:39.913Z,69.04
2023-03-02T06:20:11.185Z,69.12
2023-03-02T06:22:41.140Z,68.84
2023-03-02T06:25:10.377Z,68.77
2023-03-02T06:27:38.852Z,69.08
2023-03-02T06:30:08.604Z,68.80
2023-03-02T06:32:36.597Z,69.04
2023-03-02T06:35:08.613Z,68.86
2023-03-02T06:37:36.597Z,68.97
2023-03-02T06:40:08.419Z,69.16
2023-03-02T06:42:36.357Z,69.00
2023-03-02T06:45:04.888Z,69.07
2023-03-02T06:47:33.409Z,69.29
2023-03-02T06:50:02.249Z,69.35
2023-03-02T06:52:31.481Z,69.05
2023-03-02T06:54:59.196Z,68.97
2023-03-02T06:57:33.554Z,69.25
2023-03-02T07:00:02.302Z,69.49
2023-03-02T07:02:30.180Z,69.36
2023-03-02T07:04:57.947Z,69.42
2023-03-02T07:07:26.638Z,69.47
2023-03-02T07:09:55.743Z,69.24
2023-03-02T07:12:23.511Z,69.45
2023-03-02T07:14:51.393Z,69.50
2023-03-02T07:17:19.177Z,69.36
2023-03-02T07:19:47.104Z,69.24
2023-03-02T07:22:14.948Z,69.25
2023-03-02T07:24:44.680Z,69.61
2023-03-02T07:27:14.219Z,69.69
2023-03-02T07:29:42.181Z,69.64
2023-03-02T07:32:12.383Z,69.39
2023-03-02T07:34:40.949Z,69.96
2023-03-02T07:37:08.965Z,69.81
2023-03-02T07:39:36.764Z,69.50
2023-03-02T07:42:07.973Z,69.82
2023-03-02T07:44:37.127Z,69.83
2023-03-02T07:47:04.986Z,69.88
2023-03-02T07:49:32.862Z,69.87
2023-03-02T07:52:00.630Z,70.14
2023-03-02T07:54:30.461Z,70.00
2023-03-02T07:56:58.295Z,69.96
2023-03-02T07:59:28.348Z,69.84
2023-03-02T08:01:58.123Z,69.93
2023-03-02T08:04:26.428Z,69.54
2023-03-02T08:06:54.266Z,70.01
2023-03-02T08:09:22.070Z,69.97
2023-03-02T08:11:50.065Z,70.33
2023-03-02T08:14:17.964Z,69.75
2023-03-02T08:16:45.926Z,69.84
2023-03-02T08:19:15.055Z,69.84
2023-03-02T08:21:43.056Z,69.96
2023-03-02T08:24:11.599Z,70.36
2023-03-02T08:26:40.276Z,69.89
2023-03-02T08:29:08.222Z,70.22
2023-03-02T08:31:36.416Z,70.38
2023-03-02T08:34:04.628Z,70.23
2023-03-02T08:36:33.985Z,70.32
2023-03-02T08:39:02.140Z,70.24
2023-03-02T08:41:30.684Z,70.06
2023-03-02T08:43:59.050Z,70.29
2023-03-02T08:46:26.863Z,70.43
2023-03-02T08:48:54.834Z,70.20
2023-03-02T08:51:24.059Z,70.32
2023-03-02T08:53:56.277Z,70.23
2023-03-02T08:56:27.306Z,70.32
2023-03-02T08:58:57.121Z,70.40
2023-03-02T09:01:26.543Z,70.50
2023-03-02T09:03:54.462Z,70.57
2023-03-02T09:06:22.653Z,70.77
2023-03-02T09:08:50.843Z,70.38
2023-03-02T09:11:20.460Z,70.72
2023-03-02T09:13:48.663Z,70.59
2023-03-02T09:16:17.263Z,70.76
2023-03-02T09:18:45.226Z,70.79
2023-03-02T09:21:13.056Z,71.11
2023-03-02T09:23:41.017Z,70.49
2023-03-02T09:26:09.764Z,70.61
2023-03-02T09:28:39.766Z,70.83
2023-03-02T09:31:09.771Z,71.12
2023-03-02T09:33:37.621Z,70.59
2023-03-02T09:36:11.530Z,70.86
2023-03-02T09:38:39.420Z,70.52
2023-03-02T09:41:52.281Z,70.70
2023-03-02T09:44:43.706Z,70.77
2023-03-02T09:47:33.449Z,70.38
2023-03-02T09:50:12.158Z,70.69
2023-03-02T09:52:49.052Z,71.27
2023-03-02T09:55:20.224Z,70.64
2023-03-02T09:57:48.638Z,70.70
2023-03-02T10:00:26.614Z,70.93
2023-03-02T10:03:05.164Z,70.60
2023-03-02T10:05:41.701Z,71.33
2023-03-02T10:08:13.525Z,70.73
2023-03-02T10:10:45.306Z,70.67
2023-03-02T10:13:23.437Z,70.82
2023-03-02T10:16:12.889Z,71.20
2023-03-02T10:18:46.436Z,70.81
2023-03-02T10:21:23.277Z,70.73
2023-03-02T10:23:58.671Z,70.65
2023-03-02T10:26:40.581Z,71.09
2023-03-02T10:29:40.827Z,70.94
2023-03-02T10:32:19.075Z,71.11
2023-03-02T10:34:48.007Z,71.05
2023-03-02T10:37:19.221Z,70.82
2023-03-02T10:39:47.296Z,70.63
2023-03-02T10:42:19.539Z,70.76
2023-03-02T10:44:51.402Z,71.18
2023-03-02T10:47:28.621Z,71.33
2023-03-02T10:49:58.181Z,70.76
2023-03-02T10:52:27.930Z,70.57
2023-03-02T10:55:06.318Z,71.36
2023-03-02T10:57:38.975Z,71.35
2023-03-02T11:00:16.181Z,70.59
2023-03-02T11:02:52.564Z,70.87
2023-03-02T11:05:28.527Z,71.32
2023-03-02T11:07:58.482Z,71.00
2023-03-02T11:10:31.703Z,71.14
2023-03-02T11:13:01.201Z,70.55
2023-03-02T11:15:36.764Z,70.29
2023-03-02T11:18:12.854Z,70.51
2023-03-02T11:20:44.864Z,71.39
2023-03-02T11:23:34.068Z,70.52
2023-03-02T11:26:07.180Z,70.72
2023-03-02T11:28:45.667Z,70.15
2023-03-02T11:31:21.670Z,70.24
2023-03-02T11:34:16.979Z,70.30
2023-03-02T11:36:57.353Z,70.60
2023-03-02T11:39:29.990Z,70.70
2023-03-02T11:41:58.104Z,70.37
2023-03-02T11:44:27.534Z,70.06
2023-03-02T11:47:01.226Z,71.09
2023-03-02T11:49:38.867Z,70.17
2023-03-02T11:52:15.985Z,70.31
2023-03-02T11:54:46.922Z,70.51
2023-03-02T11:57:22.309Z,70.06
2023-03-02T11:59:52.336Z,70.89
2023-03-02T12:02:21.442Z,70.17
2023-03-02T12:04:50.661Z,69.98
2023-03-02T12:07:23.354Z,69.99
2023-03-02T12:10:00.430Z,70.25
2023-03-02T12:12:41.965Z,70.13
2023-03-02T12:15:39.843Z,70.38
2023-03-02T12:18:29.951Z,70.17
2023-03-02T12:21:04.998Z,69.95
2023-03-02T12:23:35.829Z,70.12
2023-03-02T12:26:07.960Z,70.22
2023-03-02T12:28:37.713Z,69.90
2023-03-02T12:31:09.127Z,69.82
2023-03-02T12:33:44.358Z,70.00
2023-03-02T12:36:17.026Z,69.76
2023-03-02T12:38:51.228Z,70.08
2023-03-02T12:41:30.861Z,69.95
2023-03-02T12:44:16.919Z,69.97
2023-03-02T12:46:46.620Z,69.97
2023-03-02T12:49:28.373Z,69.54
2023-03-02T12:51:58.746Z,69.68
2023-03-02T12:54:28.876Z,69.61
2023-03-02T12:57:09.018Z,69.63
2023-03-02T12:59:37.547Z,69.73
2023-03-02T13:02:13.992Z,69.72
2023-03-02T13:04:41.844Z,69.59
2023-03-02T13:07:19.325Z,69.70
2023-03-02T13:09:56.608Z,69.98
2023-03-02T13:12:27.475Z,69.73
2023-03-02T13:14:57.291Z,69.30
2023-03-02T13:17:29.514Z,69.63
2023-03-02T13:19:58.029Z,69.49
2023-03-02T13:22:28.373Z,69.47
2023-03-02T13:25:00.310Z,69.23
2023-03-02T13:27:29.100Z,69.32
2023-03-02T13:29:57.153Z,69.42
2023-03-02T13:32:26.951Z,69.26
2023-03-02T13:34:56.274Z,69.15
2023-03-02T13:37:39.164Z,69.15
2023-03-02T13:40:30.142Z,69.08
2023-03-02T13:42:58.422Z,69.21
2023-03-02T13:45:28.063Z,68.90
2023-03-02T13:47:58.319Z,69.11
2023-03-02T13:50:28.105Z,69.05
2023-03-02T13:53:00.531Z,68.85
2023-03-02T13:55:28.683Z,69.01
2023-03-02T13:57:57.269Z,68.82
2023-03-02T14:00:31.885Z,68.82
2023-03-02T14:03:00.016Z,68.68
2023-03-02T14:05:33.163Z,68.55
2023-03-02T14:08:03.610Z,68.82
2023-03-02T14:10:31.489Z,68.72
2023-03-02T14:13:05.451Z,68.65
2023-03-02T14:15:33.589Z,68.64
2023-03-02T14:18:01.736Z,68.82
2023-03-02T14:20:29.676Z,68.69
2023-03-02T14:22:57.444Z,68.43
2023-03-02T14:25:26.752Z,68.70
2023-03-02T14:27:54.621Z,68.36
2023-03-02T14:30:22.730Z,68.40
2023-03-02T14:32:51.089Z,68.35
2023-03-02T14:35:20.198Z,68.44
2023-03-02T14:37:50.355Z,68.35
2023-03-02T14:40:21.619Z,68.11
2023-03-02T14:42:51.900Z,68.31
2023-03-02T14:45:20.557Z,68.22
2023-03-02T14:47:48.802Z,68.25
2023-03-02T14:50:17.705Z,68.13
2023-03-02T14:52:48.923Z,68.14
2023-03-02T14:55:25.666Z,68.18
2023-03-02T14:57:58.253Z,67.80
2023-03-02T15:00:26.552Z,68.12
2023-03-02T15:02:54.937Z,68.16
2023-03-02T15:05:23.022Z,67.83
2023-03-02T15:07:53.314Z,67.73
2023-03-02T15:10:23.006Z,67.78
2023-03-02T15:12:50.951Z,67.63
2023-03-02T15:15:20.262Z,67.84
2023-03-02T15:17:48.066Z,67.88
2023-03-02T15:20:17.612Z,67.95
2023-03-02T15:22:45.598Z,68.10
2023-03-02T15:25:13.432Z,67.81
2023-03-02T15:27:41.524Z,67.48
2023-03-02T15:30:12.146Z,67.35
2023-03-02T15:32:41.414Z,67.92
2023-03-02T15:35:09.760Z,67.82
2023-03-02T15:37:37.639Z,67.40
2023-03-02T15:40:06.337Z,67.56
2023-03-02T15:42:34.442Z,67.15
2023-03-02T15:45:02.262Z,67.50
2023-03-02T15:47:30.036Z,67.52
2023-03-02T15:49:59.273Z,67.05
2023-03-02T15:52:27.507Z,67.39
2023-03-02T15:54:55.344Z,67.67
2023-03-02T15:57:23.179Z,67.29
2023-03-02T15:59:51.028Z,67.06
2023-03-02T16:02:18.800Z,68.01
2023-03-02T16:04:46.587Z,67.24
2023-03-02T16:07:15.742Z,67.21
2023-03-02T16:09:45.265Z,66.88
2023-03-02T16:12:13.120Z,66.62
2023-03-02T16:14:41.190Z,67.52
2023-03-02T16:17:09.021Z,67.35
2023-03-02T16:19:37.657Z,67.30
2023-03-02T16:22:05.603Z,66.84
2023-03-02T16:24:34.686Z,66.67
2023-03-02T16:27:02.581Z,67.09
2023-03-02T16:29:31.104Z,67.09
2023-03-02T16:31:59.053Z,67.05
2023-03-02T16:34:27.031Z,67.29
2023-03-02T16:36:54.870Z,67.64
2023-03-02T16:39:22.972Z,67.13
2023-03-02T16:41:52.261Z,66.90
2023-03-02T16:44:22.457Z,67.01
2023-03-02T16:46:50.227Z,67.00
2023-03-02T16:49:18.488Z,67.35
2023-03-02T16:51:46.566Z,67.68
2023-03-02T16:54:17.434Z,67.29
2023-03-02T16:56:47.627Z,67.33
2023-03-02T16:59:16.957Z,66.95
2023-03-02T17:01:45.209Z,67.11
2023-03-02T17:04:13.158Z,67.21
2023-03-02T17:06:59.624Z,67.48
2023-03-02T17:09:28.361Z,66.96
2023-03-02T17:11:56.272Z,66.82
2023-03-02T17:14:25.480Z,67.18
2023-03-02T17:16:53.733Z,66.86
2023-03-02T17:19:24.495Z,67.22
2023-03-02T17:21:52.296Z,67.15
2023-03-02T17:24:20.149Z,67.18
2023-03-02T17:26:47.964Z,67.01
2023-03-02T17:29:16.126Z,66.81
2023-03-02T17:31:45.776Z,66.82
2023-03-02T17:34:14.271Z,67.33
2023-03-02T17:36:43.057Z,67.21
2023-03-02T17:39:11.374Z,67.18
2023-03-02T17:41:40.227Z,67.03
2023-03-02T17:44:08.009Z,67.61
2023-03-02T17:46:35.902Z,66.88
2023-03-02T20:04:58.677Z,68.78
2023-03-02T20:55:17.403Z,69.30
2023-03-02T20:57:46.802Z,69.43
2023-03-02T21:00:18.082Z,69.84
2023-03-02T21:02:47.688Z,69.67
2023-03-02T21:05:15.832Z,69.80
2023-03-02T21:07:44.277Z,69.58
2023-03-02T21:10:15.725Z,70.13
2023-03-02T21:12:44.421Z,69.51
2023-03-02T21:15:14.178Z,69.75
2023-03-02T21:17:42.233Z,69.77
2023-03-02T21:20:12.377Z,69.53
2023-03-02T21:22:40.277Z,69.91
2023-03-02T21:25:10.797Z,69.99
2023-03-02T21:27:40.073Z,69.99
2023-03-02T21:30:13.693Z,70.26
2023-03-02T21:32:45.549Z,70.05
2023-03-02T21:35:14.912Z,70.20
2023-03-02T21:37:43.454Z,70.73
2023-03-02T21:40:15.846Z,69.99
2023-03-02T21:42:43.748Z,70.66
2023-03-02T21:45:12.409Z,70.82
2023-03-02T21:47:41.280Z,70.95
2023-03-02T21:50:14.886Z,70.84
2023-03-02T21:52:42.877Z,70.52
2023-03-02T21:55:11.325Z,70.50
2023-03-02T21:57:39.240Z,70.17
2023-03-02T22:00:10.045Z,70.36
2023-03-02T22:02:38.601Z,70.74
2023-03-02T22:05:07.071Z,70.60
2023-03-02T22:07:36.256Z,70.84
2023-03-02T22:10:04.436Z,70.71
2023-03-02T22:12:32.833Z,71.08
2023-03-02T22:15:04.089Z,70.79
2023-03-02T22:17:31.877Z,70.79
2023-03-02T22:19:59.626Z,70.95
2023-03-02T22:22:30.162Z,71.20
2023-03-02T22:24:59.397Z,70.99
2023-03-02T22:27:28.856Z,70.90
2023-03-02T22:29:59.160Z,71.37
2023-03-02T22:32:29.524Z,71.23
2023-03-02T22:34:59.080Z,70.97
2023-03-02T22:37:28.981Z,71.04
2023-03-02T22:40:01.926Z,71.06
2023-03-02T22:42:31.615Z,71.08
2023-03-02T22:45:09.981Z,71.66
2023-03-02T22:47:37.786Z,71.63
2023-03-02T22:50:21.925Z,71.28
2023-03-02T22:52:50.620Z,71.70
2023-03-02T22:55:37.250Z,71.43
2023-03-02T22:58:31.543Z,71.84
2023-03-02T23:01:01.199Z,71.45
2023-03-02T23:06:42.411Z,71.56
2023-03-02T23:09:10.243Z,71.75
2023-03-02T23:11:40.827Z,71.66
2023-03-02T23:14:19.097Z,71.96
2023-03-02T23:16:52.484Z,71.81
2023-03-02T23:19:20.390Z,71.82
2023-03-02T23:21:50.715Z,71.78
2023-03-02T23:24:22.081Z,71.95
2023-03-02T23:26:50.710Z,72.12
2023-03-02T23:29:19.557Z,71.94
2023-03-02T23:31:47.622Z,71.91
2023-03-02T23:34:15.670Z,72.27
2023-03-02T23:36:43.674Z,72.32
2023-03-02T23:39:12.904Z,71.76
2023-03-02T23:41:40.702Z,72.17
2023-03-02T23:44:09.862Z,72.49
2023-03-02T23:46:37.634Z,72.25
2023-03-02T23:49:05.409Z,72.18
2023-03-02T23:51:33.280Z,72.42
2023-03-02T23:54:03.469Z,72.54
2023-03-02T23:56:34.054Z,72.57
2023-03-02T23:59:02.148Z,72.41
